Time;durP1;ratioP1;P1;durP2;ratioP2;P2;SDS_P1;SDS_P2;PMS_P1;PMS_P2;Temp;Humidity;BMP_temperature;BMP_pressure;BME280_temperature;BME280_humidity;BME280_pressure;Samples;Min_cycle;Max_cycle;Signal;HPM_P1;HPM_P2
2023/06/17 01:40:45;;;;;;;30.41;16.36;;;;;;;;;;2558235;22;3165931;-94
2023/06/17 01:42:31;;;;;;;23.98;12.23;;;;;;;;;;2538084;23;20024;-96
2023/06/17 01:43:53;;;;;;;27.13;13.57;;;;;;;;;;2551529;23;20021;-95
2023/06/17 01:45:18;;;;;;;19.20;10.93;;;;;;;;;;2530963;23;20014;-96
2023/06/17 01:46:42;;;;;;;21.17;12.48;;;;;;;;;;2550382;23;20084;-95
2023/06/17 01:48:03;;;;;;;20.85;11.45;;;;;;;;;;2532135;23;20033;-94
2023/06/17 01:49:31;;;;;;;17.02;11.68;;;;;;;;;;2550100;23;20032;-94
2023/06/17 01:50:54;;;;;;;40.75;18.05;;;;;;;;;;2528105;23;20013;-94
2023/06/17 01:52:16;;;;;;;17.77;11.43;;;;;;;;;;2550353;23;20040;-94
2023/06/17 01:53:37;;;;;;;21.40;11.48;;;;;;;;;;2533330;23;20018;-95
2023/06/17 01:54:58;;;;;;;15.10;10.90;;;;;;;;;;2548911;23;20016;-94
2023/06/17 01:56:19;;;;;;;16.58;11.00;;;;;;;;;;2533137;23;20025;-94
2023/06/17 01:57:40;;;;;;;17.90;11.15;;;;;;;;;;2549391;23;20085;-95
2023/06/17 01:59:01;;;;;;;18.45;11.10;;;;;;;;;;2533779;23;20013;-95
2023/06/17 02:00:30;;;;;;;17.83;12.48;;;;;;;;;;2549164;23;20005;-94
2023/06/17 02:01:51;;;;;;;20.65;11.73;;;;;;;;;;2525810;23;20025;-93
2023/06/17 02:03:12;;;;;;;20.13;11.68;;;;;;;;;;2548054;23;20013;-94
2023/06/17 02:04:33;;;;;;;18.83;12.02;;;;;;;;;;2533002;23;20144;-96
2023/06/17 02:05:54;;;;;;;19.52;11.93;;;;;;;;;;2547956;23;20009;-95
2023/06/17 02:07:18;;;;;;;26.92;12.75;;;;;;;;;;2531750;23;20010;-95
2023/06/17 02:08:40;;;;;;;19.38;11.57;;;;;;;;;;2548879;23;20370;-95
2023/06/17 02:10:03;;;;;;;;;;;;;;;;;;2533153;23;20011;-95
2023/06/17 02:11:25;;;;;;;20.40;12.15;;;;;;;;;;2527048;23;19909;-94
2023/06/17 02:12:46;;;;;;;19.77;12.10;;;;;;;;;;2528410;23;20368;-94
2023/06/17 02:14:07;;;;;;;15.13;10.82;;;;;;;;;;2549837;23;20021;-94
2023/06/17 02:15:28;;;;;;;25.58;13.68;;;;;;;;;;2533355;23;20017;-95
2023/06/17 02:16:49;;;;;;;20.52;11.85;;;;;;;;;;2549424;23;20009;-94
2023/06/17 02:18:12;;;;;;;23.00;11.95;;;;;;;;;;2533708;23;20014;-94
2023/06/17 02:19:33;;;;;;;26.63;13.82;;;;;;;;;;2549809;23;20009;-91
2023/06/17 02:20:54;;;;;;;23.65;13.45;;;;;;;;;;2529228;23;20021;-92
2023/06/17 02:22:15;;;;;;;21.67;12.25;;;;;;;;;;2549746;23;20020;-92
2023/06/17 02:23:38;;;;;;;19.33;13.10;;;;;;;;;;2532812;23;20014;-92
2023/06/17 02:25:03;;;;;;;21.13;11.95;;;;;;;;;;2549168;23;20028;-92
2023/06/17 02:26:24;;;;;;;22.08;12.15;;;;;;;;;;2532610;23;20026;-93
2023/06/17 02:27:48;;;;;;;21.10;12.43;;;;;;;;;;2549425;23;20020;-92
2023/06/17 02:29:15;;;;;;;20.92;13.68;;;;;;;;;;2533834;23;20179;-93
2023/06/17 02:30:36;;;;;;;20.17;12.82;;;;;;;;;;2551622;23;20013;-92
2023/06/17 02:31:57;;;;;;;27.70;13.38;;;;;;;;;;2532590;23;20006;-93
2023/06/17 02:33:19;;;;;;;20.05;12.75;;;;;;;;;;2527478;23;20006;-91
2023/06/17 02:34:42;;;;;;;19.80;12.90;;;;;;;;;;2530597;23;20484;-93
2023/06/17 02:36:03;;;;;;;19.83;12.32;;;;;;;;;;2550438;23;20060;-93
2023/06/17 02:37:24;;;;;;;24.63;12.70;;;;;;;;;;2532599;23;20397;-92
2023/06/17 02:38:45;;;;;;;19.58;12.77;;;;;;;;;;2546729;23;20467;-93
2023/06/17 02:40:08;;;;;;;17.38;12.32;;;;;;;;;;2531387;23;20046;-93
2023/06/17 02:41:29;;;;;;;18.27;11.80;;;;;;;;;;2542228;23;20021;-92
2023/06/17 02:42:50;;;;;;;20.65;11.52;;;;;;;;;;2529970;23;20014;-93
2023/06/17 02:44:11;;;;;;;22.83;11.90;;;;;;;;;;2533336;23;20093;-93
2023/06/17 02:45:32;;;;;;;26.23;13.57;;;;;;;;;;2550107;23;20357;-92
2023/06/17 02:46:53;;;;;;;23.00;13.80;;;;;;;;;;2537765;23;19999;-92
2023/06/17 02:48:14;;;;;;;21.23;12.60;;;;;;;;;;2533055;23;20014;-92
2023/06/17 02:49:35;;;;;;;26.15;13.32;;;;;;;;;;2531606;23;20006;-91
2023/06/17 02:50:56;;;;;;;22.40;13.88;;;;;;;;;;2549326;23;20017;-92
2023/06/17 02:52:17;;;;;;;18.05;12.63;;;;;;;;;;2526894;23;20015;-92
2023/06/17 02:53:38;;;;;;;21.08;13.27;;;;;;;;;;2525406;23;20014;-92
2023/06/17 02:54:59;;;;;;;18.75;12.63;;;;;;;;;;2522755;23;20497;-92
2023/06/17 02:56:21;;;;;;;22.73;13.30;;;;;;;;;;2544765;23;20005;-92
2023/06/17 02:57:44;;;;;;;24.52;13.43;;;;;;;;;;2528147;23;20011;-93
2023/06/17 02:59:08;;;;;;;20.50;13.30;;;;;;;;;;2524187;23;20062;-92
2023/06/17 03:00:29;;;;;;;23.75;13.98;;;;;;;;;;2523754;23;20018;-92
2023/06/17 03:01:51;;;;;;;23.38;13.90;;;;;;;;;;2542814;23;20028;-92
2023/06/17 03:03:12;;;;;;;20.60;13.43;;;;;;;;;;2528865;23;20030;-92
2023/06/17 03:04:36;;;;;;;19.98;13.30;;;;;;;;;;2522981;23;20324;-92
2023/06/17 03:06:01;;;;;;;28.30;13.98;;;;;;;;;;2523609;23;20455;-92
2023/06/17 03:07:24;;;;;;;29.02;14.63;;;;;;;;;;2544191;23;20370;-92
2023/06/17 03:08:45;;;;;;;33.10;14.10;;;;;;;;;;2528832;23;20011;-92
2023/06/17 03:10:07;;;;;;;18.83;13.63;;;;;;;;;;2523413;23;20020;-92
2023/06/17 03:11:28;;;;;;;23.73;13.93;;;;;;;;;;2524732;23;20026;-91
2023/06/17 03:12:49;;;;;;;21.65;13.20;;;;;;;;;;2543442;23;20009;-92
2023/06/17 03:14:10;;;;;;;19.65;12.80;;;;;;;;;;2529472;23;20025;-92
2023/06/17 03:15:34;;;;;;;21.30;13.73;;;;;;;;;;2523483;23;20010;-92
2023/06/17 03:17:02;;;;;;;22.27;14.38;;;;;;;;;;2529358;23;20002;-96
2023/06/17 03:18:24;;;;;;;21.65;14.10;;;;;;;;;;2550464;23;19997;-96
2023/06/17 03:19:46;;;;;;;27.53;15.37;;;;;;;;;;2534869;23;20010;-96
2023/06/17 03:21:15;;;;;;;23.63;14.27;;;;;;;;;;2528426;23;20374;-96
2023/06/17 03:22:40;;;;;;;21.42;13.93;;;;;;;;;;2551241;23;20002;-96
2023/06/17 03:24:06;;;;;;;21.02;13.95;;;;;;;;;;2540777;23;20010;-95
2023/06/17 03:25:27;;;;;;;27.25;14.77;;;;;;;;;;2551072;23;20021;-96
2023/06/17 03:26:58;;;;;;;23.80;14.13;;;;;;;;;;2537107;23;20017;-96
2023/06/17 03:28:19;;;;;;;21.23;13.93;;;;;;;;;;2538497;23;20024;-96
2023/06/17 03:29:40;;;;;;;22.47;14.07;;;;;;;;;;2539015;23;20017;-96
2023/06/17 03:31:05;;;;;;;22.20;13.73;;;;;;;;;;2536719;23;20398;-96
2023/06/17 03:32:28;;;;;;;20.48;12.75;;;;;;;;;;2521278;23;20014;-96
2023/06/17 03:33:51;;;;;;;25.58;13.82;;;;;;;;;;2545224;23;20037;-96
2023/06/17 03:35:15;;;;;;;30.92;14.77;;;;;;;;;;2537525;23;20001;-96
2023/06/17 03:36:36;;;;;;;22.52;12.80;;;;;;;;;;2545446;23;20016;-96
2023/06/17 03:37:58;;;;;;;25.35;14.43;;;;;;;;;;2537554;23;20014;-95
2023/06/17 03:39:19;;;;;;;21.75;14.52;;;;;;;;;;2544569;23;20013;-96
2023/06/17 03:40:54;;;;;;;23.83;13.50;;;;;;;;;;2539239;23;20455;-96
2023/06/17 03:42:31;;;;;;;25.10;13.00;;;;;;;;;;2522182;23;20026;-96
2023/06/17 03:43:57;;;;;;;20.20;13.98;;;;;;;;;;2535033;23;20007;-96
2023/06/17 03:45:18;;;;;;;23.77;14.57;;;;;;;;;;2548819;23;20016;-96
2023/06/17 03:46:45;;;;;;;24.98;13.80;;;;;;;;;;2530224;23;20085;-96
2023/06/17 03:48:06;;;;;;;22.75;13.40;;;;;;;;;;2527948;23;20003;-96
2023/06/17 03:49:31;;;;;;;26.05;13.63;;;;;;;;;;2520634;23;20006;-96
2023/06/17 03:50:53;;;;;;;31.33;15.65;;;;;;;;;;2547708;23;20009;-96
2023/06/17 03:52:14;;;;;;;24.87;14.70;;;;;;;;;;2529074;23;20091;-95
2023/06/17 03:53:35;;;;;;;24.30;15.48;;;;;;;;;;2528466;23;20374;-96
2023/06/17 03:55:03;;;;;;;26.73;16.93;;;;;;;;;;2526327;23;20017;-96
2023/06/17 03:56:27;;;;;;;28.95;13.80;;;;;;;;;;2548160;23;20426;-96
2023/06/17 03:57:48;;;;;;;24.98;14.73;;;;;;;;;;2530862;23;20014;-96
2023/06/17 03:59:11;;;;;;;27.75;16.23;;;;;;;;;;2528507;23;20018;-95
2023/06/17 04:00:32;;;;;;;;;;;;;;;;;;2527131;23;20021;-95
2023/06/17 04:01:54;;;;;;;46.63;21.83;;;;;;;;;;2526537;23;19901;-96
2023/06/17 04:03:15;;;;;;;23.52;14.95;;;;;;;;;;2551681;23;20010;-96
2023/06/17 04:04:36;;;;;;;25.58;14.90;;;;;;;;;;2531466;23;20015;-96
2023/06/17 04:05:58;;;;;;;22.65;14.90;;;;;;;;;;2527969;23;20018;-96
2023/06/17 04:07:20;;;;;;;27.35;15.20;;;;;;;;;;2525858;23;20010;-96
2023/06/17 04:08:41;;;;;;;;;;;;;;;;;;2548840;23;20020;-96
2023/06/17 04:10:03;;;;;;;27.77;15.73;;;;;;;;;;2529090;23;19905;-96
2023/06/17 04:11:24;;;;;;;24.83;15.32;;;;;;;;;;2546077;23;20017;-96
2023/06/17 04:12:51;;;;;;;29.13;15.48;;;;;;;;;;2510523;23;20022;-96
2023/06/17 04:14:12;;;;;;;25.73;15.55;;;;;;;;;;2530318;23;20009;-96
2023/06/17 04:15:35;;;;;;;26.30;15.20;;;;;;;;;;2544613;23;20486;-96
2023/06/17 04:16:59;;;;;;;26.98;15.02;;;;;;;;;;2536986;23;20021;-96
2023/06/17 04:18:20;;;;;;;30.50;15.73;;;;;;;;;;2544474;23;20009;-96
2023/06/17 04:19:49;;;;;;;27.98;15.75;;;;;;;;;;2537648;23;20017;-96
2023/06/17 04:21:11;;;;;;;26.73;15.55;;;;;;;;;;2546582;23;20005;-96
2023/06/17 04:22:35;;;;;;;31.23;16.73;;;;;;;;;;2528959;23;20010;-96
2023/06/17 04:23:56;;;;;;;24.52;15.80;;;;;;;;;;2544751;23;20009;-96
2023/06/17 04:25:20;;;;;;;32.72;15.35;;;;;;;;;;2532871;23;20006;-96
2023/06/17 04:26:44;;;;;;;21.50;15.52;;;;;;;;;;2527476;23;20022;-96
2023/06/17 04:28:07;;;;;;;29.92;17.42;;;;;;;;;;2526555;23;20025;-96
2023/06/17 04:29:29;;;;;;;;;;;;;;;;;;2548373;23;20012;-96
2023/06/17 04:31:00;;;;;;;19.90;16.02;;;;;;;;;;2530702;23;19912;-96
2023/06/17 04:32:38;;;;;;;29.65;17.25;;;;;;;;;;2546871;23;20016;-94
2023/06/17 04:34:00;;;;;;;29.90;17.77;;;;;;;;;;2527689;23;20089;-96
2023/06/17 04:35:24;;;;;;;26.10;16.42;;;;;;;;;;2514956;23;20018;-96
2023/06/17 04:36:56;;;;;;;27.27;17.98;;;;;;;;;;2511963;23;20003;-96
2023/06/17 04:38:19;;;;;;;29.10;18.00;;;;;;;;;;2539414;23;20009;-96
2023/06/17 04:39:42;;;;;;;28.17;16.98;;;;;;;;;;2520086;23;20079;-95
2023/06/17 04:41:05;;;;;;;40.30;19.00;;;;;;;;;;2514698;23;20006;-95
2023/06/17 04:42:27;;;;;;;27.33;17.42;;;;;;;;;;2520723;23;20014;-95
2023/06/17 04:43:49;;;;;;;27.63;18.55;;;;;;;;;;2527453;23;20006;-96
2023/06/17 04:45:10;;;;;;;40.25;19.05;;;;;;;;;;2514578;23;20026;-96
2023/06/17 04:46:31;;;;;;;31.92;18.20;;;;;;;;;;2516921;23;20021;-96
2023/06/17 04:47:56;;;;;;;33.03;18.13;;;;;;;;;;2536918;23;20014;-95
2023/06/17 04:49:18;;;;;;;30.85;18.80;;;;;;;;;;2528890;23;20006;-96
2023/06/17 04:52:29;;;;;;;34.72;17.08;;;;;;;;;;2519250;23;20015;-96
2023/06/17 04:53:50;;;;;;;26.48;16.05;;;;;;;;;;2539932;23;20462;-96
2023/06/17 04:55:14;;;;;;;24.33;17.98;;;;;;;;;;2520160;23;19999;-96
2023/06/17 04:56:40;;;;;;;28.73;18.33;;;;;;;;;;2534696;23;20021;-96
2023/06/17 04:58:03;;;;;;;30.92;17.20;;;;;;;;;;2520034;23;20456;-96
2023/06/17 04:59:27;;;;;;;38.90;19.17;;;;;;;;;;2534428;23;19998;-96
2023/06/17 05:00:51;;;;;;;29.10;16.67;;;;;;;;;;2521057;23;20011;-96
2023/06/17 05:02:15;;;;;;;48.15;22.00;;;;;;;;;;2495764;23;20015;-96
2023/06/17 05:03:37;;;;;;;27.77;16.73;;;;;;;;;;2522851;23;20021;-96
2023/06/17 05:05:04;;;;;;;28.55;16.98;;;;;;;;;;2522608;23;20014;-96
2023/06/17 05:06:25;;;;;;;25.55;15.80;;;;;;;;;;2535981;23;20006;-96
2023/06/17 05:07:57;;;;;;;26.33;16.90;;;;;;;;;;2527725;23;20022;-96
2023/06/17 05:09:19;;;;;;;25.92;16.67;;;;;;;;;;2536614;23;20014;-96
2023/06/17 05:10:49;;;;;;;24.67;16.40;;;;;;;;;;2527781;23;20014;-95
2023/06/17 05:12:24;;;;;;;30.58;18.02;;;;;;;;;;2533805;23;20021;-96
2023/06/17 05:14:00;;;;;;;30.50;17.80;;;;;;;;;;2517845;23;20026;-96
2023/06/17 05:15:21;;;;;;;32.42;18.40;;;;;;;;;;2538715;23;20485;-95
2023/06/17 05:16:45;;;;;;;27.70;17.83;;;;;;;;;;2520230;23;20006;-96
2023/06/17 05:18:07;;;;;;;27.65;16.40;;;;;;;;;;2535099;23;20029;-96
2023/06/17 05:19:33;;;;;;;30.47;17.50;;;;;;;;;;2520130;23;19991;-96
2023/06/17 05:21:04;;;;;;;30.40;17.58;;;;;;;;;;2538004;23;20057;-96
2023/06/17 05:22:25;;;;;;;44.58;22.48;;;;;;;;;;2516551;23;20010;-96
2023/06/17 05:23:46;;;;;;;26.90;17.23;;;;;;;;;;2536836;23;19998;-96
2023/06/17 05:25:07;;;;;;;25.38;17.92;;;;;;;;;;2518369;23;20050;-96
2023/06/17 05:26:29;;;;;;;26.45;17.13;;;;;;;;;;2537362;23;20025;-96
2023/06/17 05:27:51;;;;;;;32.60;17.45;;;;;;;;;;2518952;23;20038;-96
2023/06/17 05:29:17;;;;;;;26.23;17.08;;;;;;;;;;2535962;23;20005;-96
2023/06/17 05:30:40;;;;;;;27.65;16.77;;;;;;;;;;2518113;23;20018;-96
2023/06/17 05:32:07;;;;;;;27.23;17.23;;;;;;;;;;2536066;23;20010;-96
2023/06/17 05:33:29;;;;;;;24.05;15.75;;;;;;;;;;2515581;23;20022;-92
2023/06/17 05:34:53;;;;;;;27.20;17.23;;;;;;;;;;2530374;23;20017;-92
2023/06/17 05:36:26;;;;;;;26.02;16.60;;;;;;;;;;2516801;23;20460;-94
2023/06/17 05:37:48;;;;;;;;;;;;;;;;;;2536981;23;20010;-93
2023/06/17 05:39:10;;;;;;;28.05;16.30;;;;;;;;;;2514267;23;19912;-92
2023/06/17 05:40:30;;;;;;;;;;;;;;;;;;2534300;23;20025;-94
2023/06/17 05:41:57;;;;;;;28.23;16.98;;;;;;;;;;2515594;23;19913;-93
2023/06/17 05:43:21;;;;;;;35.55;17.67;;;;;;;;;;2519284;23;20069;-94
2023/06/17 05:44:42;;;;;;;28.90;17.33;;;;;;;;;;2517161;23;20030;-94
2023/06/17 05:46:18;;;;;;;28.35;16.65;;;;;;;;;;2531614;23;20006;-93
2023/06/17 05:47:45;;;;;;;33.55;17.75;;;;;;;;;;2515891;23;20014;-93
2023/06/17 05:49:06;;;;;;;27.60;17.60;;;;;;;;;;2509150;23;20065;-92
2023/06/17 05:50:27;;;;;;;28.17;17.67;;;;;;;;;;2533648;23;20013;-93
2023/06/17 05:51:48;;;;;;;31.30;18.17;;;;;;;;;;2516026;23;20011;-92
2023/06/17 05:53:09;;;;;;;26.88;16.80;;;;;;;;;;2532375;23;20014;-93
2023/06/17 05:54:36;;;;;;;26.38;16.38;;;;;;;;;;2517346;23;20046;-93
2023/06/17 05:55:59;;;;;;;25.98;16.10;;;;;;;;;;2534860;23;20009;-93
2023/06/17 05:57:24;;;;;;;28.08;16.20;;;;;;;;;;2516455;23;20026;-92
2023/06/17 05:58:47;;;;;;;26.55;15.80;;;;;;;;;;2535249;23;20010;-92
2023/06/17 06:00:18;;;;;;;26.80;16.10;;;;;;;;;;2518522;23;20055;-93
2023/06/17 06:01:42;;;;;;;25.50;16.88;;;;;;;;;;2535346;23;20042;-92
2023/06/17 06:03:03;;;;;;;26.95;15.43;;;;;;;;;;2508889;23;20070;-92
2023/06/17 06:04:24;;;;;;;32.28;17.33;;;;;;;;;;2531313;23;20021;-92
2023/06/17 06:05:45;;;;;;;27.85;16.67;;;;;;;;;;2515215;23;20019;-93
2023/06/17 06:07:07;;;;;;;29.55;17.08;;;;;;;;;;2533284;23;20010;-91
2023/06/17 06:08:28;;;;;;;29.20;16.02;;;;;;;;;;2519067;23;20015;-92
2023/06/17 06:09:49;;;;;;;27.95;15.43;;;;;;;;;;2532814;23;20073;-93
2023/06/17 06:11:10;;;;;;;23.10;14.50;;;;;;;;;;2519180;23;20376;-92
2023/06/17 06:12:31;;;;;;;31.90;17.73;;;;;;;;;;2517249;23;20017;-92
2023/06/17 06:13:52;;;;;;;25.05;14.43;;;;;;;;;;2518283;23;20007;-93
2023/06/17 06:15:25;;;;;;;29.58;15.90;;;;;;;;;;2510477;23;20011;-92
2023/06/17 06:16:49;;;;;;;24.58;14.32;;;;;;;;;;2510566;23;20328;-92
2023/06/17 06:18:10;;;;;;;25.65;14.75;;;;;;;;;;2533617;23;20006;-93
2023/06/17 06:19:37;;;;;;;24.10;14.38;;;;;;;;;;2517465;23;20007;-91
2023/06/17 06:20:58;;;;;;;28.27;15.68;;;;;;;;;;2534667;23;20010;-92
2023/06/17 06:22:19;;;;;;;24.88;14.82;;;;;;;;;;2517572;23;20015;-93
2023/06/17 06:23:40;;;;;;;24.13;15.30;;;;;;;;;;2531950;23;20017;-91
2023/06/17 06:25:03;;;;;;;25.90;15.30;;;;;;;;;;2523613;23;20487;-92
2023/06/17 06:26:25;;;;;;;30.08;16.08;;;;;;;;;;2521051;23;19998;-92
2023/06/17 06:27:48;;;;;;;29.03;16.13;;;;;;;;;;2531853;23;20006;-92
2023/06/17 06:29:14;;;;;;;27.88;15.07;;;;;;;;;;2525280;23;20039;-91
2023/06/17 06:30:42;;;;;;;29.45;15.57;;;;;;;;;;2519916;23;20014;-92
2023/06/17 06:32:05;;;;;;;27.95;14.93;;;;;;;;;;2533543;23;20077;-93
2023/06/17 06:33:29;;;;;;;27.38;14.82;;;;;;;;;;2521561;23;20022;-92
2023/06/17 06:34:50;;;;;;;24.10;14.10;;;;;;;;;;2521870;23;20014;-92
2023/06/17 06:36:11;;;;;;;25.27;14.38;;;;;;;;;;2532709;23;20013;-91
2023/06/17 06:37:32;;;;;;;21.85;14.98;;;;;;;;;;2525786;23;20011;-93
2023/06/17 06:38:54;;;;;;;24.27;14.32;;;;;;;;;;2519330;23;20371;-92
2023/06/17 06:40:15;;;;;;;26.10;14.32;;;;;;;;;;2533306;23;20013;-92
2023/06/17 06:41:47;;;;;;;27.10;15.65;;;;;;;;;;2524887;23;20029;-93
2023/06/17 06:43:11;;;;;;;33.63;16.38;;;;;;;;;;2512270;23;20034;-92
2023/06/17 06:44:32;;;;;;;21.50;13.07;;;;;;;;;;2539110;23;20017;-92
2023/06/17 06:45:53;;;;;;;22.45;13.35;;;;;;;;;;2530663;23;20011;-93
2023/06/17 06:47:14;;;;;;;22.67;13.88;;;;;;;;;;2525575;23;20017;-92
2023/06/17 06:48:45;;;;;;;27.90;15.10;;;;;;;;;;2523475;23;20029;-92
2023/06/17 06:50:06;;;;;;;24.23;14.35;;;;;;;;;;2536797;23;20021;-93
2023/06/17 06:51:46;;;;;;;27.50;15.27;;;;;;;;;;2527830;23;20013;-92
2023/06/17 06:53:07;;;;;;;39.80;18.02;;;;;;;;;;2525252;23;20483;-93
2023/06/17 06:54:31;;;;;;;35.65;15.95;;;;;;;;;;2522837;23;19997;-93
2023/06/17 06:55:55;;;;;;;19.75;12.23;;;;;;;;;;2523232;23;20432;-93
2023/06/17 06:57:16;;;;;;;22.42;13.27;;;;;;;;;;2523294;23;20014;-92
2023/06/17 06:58:37;;;;;;;25.55;13.93;;;;;;;;;;2523039;23;20021;-93
2023/06/17 07:00:12;;;;;;;23.15;13.00;;;;;;;;;;2538476;23;20010;-93
2023/06/17 07:01:57;;;;;;;23.27;13.10;;;;;;;;;;2532142;23;20005;-93
2023/06/17 07:03:20;;;;;;;22.15;13.38;;;;;;;;;;2526942;23;20002;-93
2023/06/17 07:06:48;;;;;;;19.60;12.45;;;;;;;;;;2531429;23;20010;-92
2023/06/17 10:32:16;;;;;;;12.93;7.88;;;;;;;;;;2525156;23;20348;-95
2023/06/17 10:33:48;;;;;;;14.50;8.52;;;;;;;;;;2523608;23;20371;-95
2023/06/17 10:35:12;;;;;;;14.32;7.95;;;;;;;;;;2505209;23;20455;-96
2023/06/17 10:38:41;;;;;;;12.75;6.88;;;;;;;;;;2527877;23;20007;-95
2023/06/17 10:40:20;;;;;;;10.25;6.57;;;;;;;;;;2524282;23;20011;-95
2023/06/17 10:41:41;;;;;;;9.82;6.85;;;;;;;;;;2525017;23;20013;-95
2023/06/17 10:43:04;;;;;;;12.48;7.22;;;;;;;;;;2524010;23;20014;-94
2023/06/17 10:44:52;;;;;;;25.80;10.73;;;;;;;;;;2522124;23;20006;-95
2023/06/17 10:46:25;;;;;;;12.80;7.05;;;;;;;;;;2525796;23;20014;-94
2023/06/17 10:47:54;;;;;;;12.23;7.07;;;;;;;;;;2524400;23;20006;-94
2023/06/17 10:49:43;;;;;;;10.05;7.22;;;;;;;;;;2522168;23;20022;-93
2023/06/17 10:51:21;;;;;;;10.32;6.47;;;;;;;;;;2527795;23;20018;-95
2023/06/17 10:52:42;;;;;;;10.50;7.32;;;;;;;;;;2523484;23;20015;-94
2023/06/17 10:54:11;;;;;;;11.43;7.47;;;;;;;;;;2525327;23;20014;-94
2023/06/17 10:55:32;;;;;;;15.68;10.32;;;;;;;;;;2486680;23;20022;-95
2023/06/17 10:57:12;;;;;;;11.50;7.20;;;;;;;;;;2524220;23;20011;-94
2023/06/17 11:00:40;;;;;;;14.63;7.32;;;;;;;;;;2523652;23;20022;-96
2023/06/17 11:02:13;;;;;;;11.95;6.60;;;;;;;;;;2524434;23;20010;-94
2023/06/17 11:03:37;;;;;;;10.55;6.82;;;;;;;;;;2524022;23;20011;-94
2023/06/17 11:05:03;;;;;;;25.58;13.07;;;;;;;;;;2505383;23;20408;-94
2023/06/17 11:08:40;;;;;;;9.07;6.50;;;;;;;;;;2524974;23;20030;-94
2023/06/17 11:10:02;;;;;;;10.55;6.53;;;;;;;;;;2523539;23;20014;-96
2023/06/17 11:11:23;;;;;;;10.23;6.95;;;;;;;;;;2521483;23;20014;-96
2023/06/17 11:12:50;;;;;;;11.20;6.72;;;;;;;;;;2519835;23;20021;-94
2023/06/17 11:14:26;;;;;;;7.97;6.18;;;;;;;;;;2525933;23;20010;-95
2023/06/17 11:15:53;;;;;;;13.38;7.90;;;;;;;;;;2497204;23;20011;-94
2023/06/17 11:17:17;;;;;;;12.35;7.35;;;;;;;;;;2516724;23;20003;-95
2023/06/17 11:18:39;;;;;;;13.48;7.35;;;;;;;;;;2524135;23;20448;-95
2023/06/17 11:20:00;;;;;;;11.07;6.47;;;;;;;;;;2523083;23;20021;-95
2023/06/17 11:21:21;;;;;;;9.63;6.90;;;;;;;;;;2521342;23;20010;-95
2023/06/17 11:22:45;;;;;;;11.30;7.20;;;;;;;;;;2523617;23;20014;-95
2023/06/17 11:24:06;;;;;;;9.30;6.55;;;;;;;;;;2524513;23;19998;-95
2023/06/17 11:25:27;;;;;;;;;;;;;;;;;;2519112;23;20025;-94
2023/06/17 11:27:07;;;;;;;15.68;6.88;;;;;;;;;;2521268;23;19917;-95
2023/06/17 11:28:44;;;;;;;11.43;6.95;;;;;;;;;;2524025;23;20057;-96
2023/06/17 11:30:07;;;;;;;13.20;7.43;;;;;;;;;;2527983;23;20014;-95
2023/06/17 11:31:51;;;;;;;12.15;6.13;;;;;;;;;;2521145;23;20014;-95
2023/06/17 11:33:21;;;;;;;14.18;7.22;;;;;;;;;;2524174;23;20014;-95
2023/06/17 11:34:53;;;;;;;;;;;;;;;;;;;;;
2023/06/17 11:36:24;;;;;;;10.82;6.63;;;;;;;;;;2523161;23;20017;-95
2023/06/17 11:37:46;;;;;;;11.80;6.32;;;;;;;;;;2527704;23;20003;-96
2023/06/17 11:40:57;;;;;;;22.42;7.85;;;;;;;;;;2525441;23;19905;-95
2023/06/17 11:42:40;;;;;;;19.67;7.95;;;;;;;;;;2511666;23;20007;-94
2023/06/17 11:44:00;;;;;;;13.90;6.57;;;;;;;;;;2522273;23;20022;-93
2023/06/17 11:45:21;;;;;;;24.85;11.93;;;;;;;;;;2492642;23;20371;-96
2023/06/17 11:46:48;;;;;;;8.40;5.88;;;;;;;;;;2484655;23;20018;-95
2023/06/17 11:48:11;;;;;;;8.15;6.30;;;;;;;;;;2487872;23;20110;-95
2023/06/17 11:49:38;;;;;;;13.98;10.10;;;;;;;;;;2484113;23;20011;-95
2023/06/17 11:51:07;;;;;;;15.82;7.13;;;;;;;;;;2490404;23;20007;-94
2023/06/17 11:52:28;;;;;;;13.30;6.82;;;;;;;;;;2485056;23;20087;-96
2023/06/17 11:54:03;;;;;;;14.90;9.77;;;;;;;;;;2487125;23;20019;-96
2023/06/17 11:55:33;;;;;;;17.15;8.95;;;;;;;;;;2486560;23;20500;-96
2023/06/17 11:56:55;;;;;;;9.73;6.80;;;;;;;;;;2484492;23;20062;-96
2023/06/17 11:58:25;;;;;;;14.80;8.95;;;;;;;;;;2487501;23;20007;-96
2023/06/17 11:59:51;;;;;;;12.55;8.32;;;;;;;;;;2485917;23;20048;-96
2023/06/17 12:01:15;;;;;;;12.43;7.50;;;;;;;;;;2489571;23;20007;-96
2023/06/17 12:02:54;;;;;;;16.05;9.27;;;;;;;;;;2485012;23;20022;-96
2023/06/17 12:04:34;;;;;;;;;;;;;;;;;;;;;
2023/06/17 12:06:02;;;;;;;11.05;6.85;;;;;;;;;;2493123;23;20018;-96
2023/06/17 12:07:43;;;;;;;10.30;6.80;;;;;;;;;;2490937;23;20457;-96
2023/06/17 12:09:07;;;;;;;9.83;6.80;;;;;;;;;;2489443;23;20044;-95
2023/06/17 12:10:36;;;;;;;12.68;7.05;;;;;;;;;;2486657;23;20008;-95
2023/06/17 12:11:58;;;;;;;11.45;7.47;;;;;;;;;;2489228;23;20438;-93
2023/06/17 12:13:36;;;;;;;11.18;7.35;;;;;;;;;;2486778;23;20012;-94
2023/06/17 12:15:01;;;;;;;13.40;7.38;;;;;;;;;;2486975;23;20023;-96
2023/06/17 12:16:34;;;;;;;12.32;7.13;;;;;;;;;;2484922;23;20020;-96
2023/06/17 12:17:56;;;;;;;9.93;7.25;;;;;;;;;;2499233;23;20008;-94
2023/06/17 12:19:28;;;;;;;9.95;6.50;;;;;;;;;;2503404;23;19999;-96
2023/06/17 12:20:51;;;;;;;11.35;7.10;;;;;;;;;;2489779;23;20011;-95
2023/06/17 12:22:15;;;;;;;8.45;6.15;;;;;;;;;;2491026;23;20026;-96
2023/06/17 12:23:40;;;;;;;12.55;7.05;;;;;;;;;;2495595;23;20011;-95
2023/06/17 12:25:02;;;;;;;8.82;7.05;;;;;;;;;;2494001;23;20019;-96
